Airfield :
LOGIN :

Register | Disclaimer

   EN    FR    IT 

 










Legend :    VFR   Marginal VFR   IFR   Intensive IFR   Very Intensive IFR
Visi :
Ceiling :
>= 8 km
>= 3000ft
5 to 8 km
1000 to 3000 ft
1500m to 5 km
500 to 1000 ft
800 to 1500m
200 to 500 ft
< 800m
< 200 ft
Symbols :   Thunderstorms  Fog  Heavy snow  Heavy precipitations  Wind > 20 kt
SIGMETs :     Misc.  Thunderstorms  Icing  Turbulence  Mountain Waves  Volcanic Ashes







- Airport Elevation : 13 ft
- IATA code : OST


EBOS - Oostend bruges Int.

CURRENT METAR :
  • 190650Z 12004KT 8000 NSC 10/09 Q1009 NOSIG

EXPIRED METARs :
  • 190620Z 09004KT 7000 NSC 10/09 Q1009 NOSIG
  • 190550Z 11003KT 6000 MIFG NSC 10/09 Q1009 TEMPO 3500 BR
  • 190520Z 12002KT 6000 NSC 11/09 Q1009 TEMPO 3500 BR
  • 190450Z 10004KT 4800 BR NSC 11/09 Q1009 BECMG 6000
  • 190420Z 10004KT 3500 BR NSC 10/09 Q1009 TEMPO 2800 BR

TAF TAF EBOS
Valid from the 19 at 06:00 until the 20 at 12:00 UTC


190510Z 1906/2012 16009KT 8000 NSC
PROB30
TEMPO 1913/1920 17015G25KT
PROB40
TEMPO 1920/1922 18015G25KT SHRA
TEMPO 1922/2003 19017G27KT 4000 RA BKN014
TEMPO 2003/2008 19017G27KT SHRA
BECMG 2008/2010 23017G30KT
No reported NOTAMs for that airfield.



MET'MAP, your aeronautical weather chart ! - Copyright ORBIFLY December 2007 - Disclaimer

ORBIFLY MET'MAP TEAM :

Programming & Development : Alexandra Zaïnal
Concept & Development : Baudouin d'Aumeries
Co-Development & Prog : Marc-Olivier Méhu
Technical & hardware support : Manuel Goepfert

Contact : metmap@orbifly.com




SOURCES & CREDITS :

   NOAA